sensor_id;sensor_type;location;lat;lon;timestamp;pressure;altitude;pressure_sealevel;temperature;humidity
59825;BME280;45703;50.898;6.054;2023-02-18T00:00:06;100975.56;;;10.70;100.00
59825;BME280;45703;50.898;6.054;2023-02-18T00:02:32;100963.25;;;10.69;100.00
59825;BME280;45703;50.898;6.054;2023-02-18T00:04:58;100967.34;;;10.71;100.00
59825;BME280;45703;50.898;6.054;2023-02-18T00:07:23;100973.94;;;10.69;100.00
59825;BME280;45703;50.898;6.054;2023-02-18T00:09:48;100965.31;;;10.67;100.00
59825;BME280;45703;50.898;6.054;2023-02-18T00:12:14;100961.41;;;10.63;100.00
59825;BME280;45703;50.898;6.054;2023-02-18T00:14:39;100971.06;;;10.64;100.00
59825;BME280;45703;50.898;6.054;2023-02-18T00:17:04;100986.66;;;10.67;100.00
59825;BME280;45703;50.898;6.054;2023-02-18T00:19:30;100967.34;;;10.65;100.00
59825;BME280;45703;50.898;6.054;2023-02-18T00:21:55;100956.25;;;10.68;100.00
59825;BME280;45703;50.898;6.054;2023-02-18T00:24:21;100954.00;;;10.65;100.00
59825;BME280;45703;50.898;6.054;2023-02-18T00:26:49;100953.38;;;10.63;100.00
59825;BME280;45703;50.898;6.054;2023-02-18T00:29:14;100952.53;;;10.62;100.00
59825;BME280;45703;50.898;6.054;2023-02-18T00:31:40;100942.28;;;10.59;100.00
59825;BME280;45703;50.898;6.054;2023-02-18T00:34:06;100942.28;;;10.59;100.00
59825;BME280;45703;50.898;6.054;2023-02-18T00:36:32;100940.84;;;10.57;100.00
59825;BME280;45703;50.898;6.054;2023-02-18T00:39:00;100933.88;;;10.56;100.00
59825;BME280;45703;50.898;6.054;2023-02-18T00:41:27;100938.59;;;10.60;100.00
59825;BME280;45703;50.898;6.054;2023-02-18T00:43:52;100938.19;;;10.57;100.00
59825;BME280;45703;50.898;6.054;2023-02-18T00:46:18;100911.91;;;10.54;100.00
59825;BME280;45703;50.898;6.054;2023-02-18T00:48:44;100918.47;;;10.58;100.00
59825;BME280;45703;50.898;6.054;2023-02-18T00:51:10;100920.09;;;10.59;100.00
59825;BME280;45703;50.898;6.054;2023-02-18T00:53:36;100916.22;;;10.55;100.00
59825;BME280;45703;50.898;6.054;2023-02-18T00:56:02;100910.03;;;10.54;100.00
59825;BME280;45703;50.898;6.054;2023-02-18T00:58:28;100902.44;;;10.58;100.00
59825;BME280;45703;50.898;6.054;2023-02-18T01:00:54;100897.91;;;10.58;100.00
59825;BME280;45703;50.898;6.054;2023-02-18T01:03:19;100904.09;;;10.59;100.00
59825;BME280;45703;50.898;6.054;2023-02-18T01:05:46;100900.59;;;10.58;100.00
59825;BME280;45703;50.898;6.054;2023-02-18T01:08:14;100892.78;;;10.57;100.00
59825;BME280;45703;50.898;6.054;2023-02-18T01:10:42;100889.50;;;10.55;100.00
59825;BME280;45703;50.898;6.054;2023-02-18T01:13:09;100892.59;;;10.52;100.00
59825;BME280;45703;50.898;6.054;2023-02-18T01:15:36;100884.38;;;10.60;100.00
59825;BME280;45703;50.898;6.054;2023-02-18T01:18:02;100887.66;;;10.62;100.00
59825;BME280;45703;50.898;6.054;2023-02-18T01:20:27;100878.00;;;10.61;100.00
59825;BME280;45703;50.898;6.054;2023-02-18T01:22:53;100875.13;;;10.56;100.00
59825;BME280;45703;50.898;6.054;2023-02-18T01:25:18;100877.16;;;10.60;100.00
59825;BME280;45703;50.898;6.054;2023-02-18T01:27:44;100882.72;;;10.59;100.00
59825;BME280;45703;50.898;6.054;2023-02-18T01:30:14;100877.59;;;10.57;100.00
59825;BME280;45703;50.898;6.054;2023-02-18T01:32:39;100873.69;;;10.60;100.00
59825;BME280;45703;50.898;6.054;2023-02-18T01:35:05;100871.22;;;10.58;100.00
59825;BME280;45703;50.898;6.054;2023-02-18T01:37:31;100873.28;;;10.63;100.00
59825;BME280;45703;50.898;6.054;2023-02-18T01:39:56;100862.59;;;10.63;100.00
59825;BME280;45703;50.898;6.054;2023-02-18T01:42:25;100864.84;;;10.66;100.00
59825;BME280;45703;50.898;6.054;2023-02-18T01:44:51;100871.63;;;10.68;100.00
59825;BME280;45703;50.898;6.054;2023-02-18T01:47:17;100868.13;;;10.68;100.00
59825;BME280;45703;50.898;6.054;2023-02-18T01:49:44;100870.41;;;10.71;100.00
59825;BME280;45703;50.898;6.054;2023-02-18T01:52:15;100854.78;;;10.68;100.00
59825;BME280;45703;50.898;6.054;2023-02-18T01:54:46;100862.38;;;10.71;100.00
59825;BME280;45703;50.898;6.054;2023-02-18T01:57:17;100846.16;;;10.72;100.00
59825;BME280;45703;50.898;6.054;2023-02-18T01:59:49;100845.94;;;10.74;100.00
59825;BME280;45703;50.898;6.054;2023-02-18T02:02:19;100842.84;;;10.77;100.00
59825;BME280;45703;50.898;6.054;2023-02-18T02:04:46;100846.38;;;10.77;100.00
59825;BME280;45703;50.898;6.054;2023-02-18T02:07:12;100847.78;;;10.80;100.00
59825;BME280;45703;50.898;6.054;2023-02-18T02:09:38;100835.47;;;10.79;100.00
59825;BME280;45703;50.898;6.054;2023-02-18T02:15:14;100820.28;;;10.79;100.00
59825;BME280;45703;50.898;6.054;2023-02-18T02:40:33;100819.41;;;10.92;100.00
59825;BME280;45703;50.898;6.054;2023-02-18T02:46:05;100816.72;;;10.92;100.00
59825;BME280;45703;50.898;6.054;2023-02-18T02:48:53;100798.88;;;10.86;100.00
59825;BME280;45703;50.898;6.054;2023-02-18T02:51:25;100799.28;;;10.83;100.00
59825;BME280;45703;50.898;6.054;2023-02-18T02:53:52;100790.88;;;10.79;100.00
59825;BME280;45703;50.898;6.054;2023-02-18T02:56:21;100788.00;;;10.81;100.00
59825;BME280;45703;50.898;6.054;2023-02-18T02:58:59;100794.41;;;10.73;100.00
59825;BME280;45703;50.898;6.054;2023-02-18T03:01:36;100789.06;;;10.73;100.00
59825;BME280;45703;50.898;6.054;2023-02-18T03:07:37;100771.41;;;10.66;100.00
59825;BME280;45703;50.898;6.054;2023-02-18T03:15:34;100764.63;;;10.57;100.00
59825;BME280;45703;50.898;6.054;2023-02-18T03:18:06;100764.22;;;10.53;100.00
59825;BME280;45703;50.898;6.054;2023-02-18T03:20:40;100768.75;;;10.53;100.00
59825;BME280;45703;50.898;6.054;2023-02-18T03:23:10;100761.16;;;10.50;100.00
59825;BME280;45703;50.898;6.054;2023-02-18T03:25:38;100753.78;;;10.45;100.00
59825;BME280;45703;50.898;6.054;2023-02-18T03:28:07;100753.78;;;10.45;100.00
59825;BME280;45703;50.898;6.054;2023-02-18T03:30:56;100759.31;;;10.44;100.00
59825;BME280;45703;50.898;6.054;2023-02-18T03:33:27;100755.00;;;10.43;100.00
59825;BME280;45703;50.898;6.054;2023-02-18T03:35:54;100752.53;;;10.41;100.00
59825;BME280;45703;50.898;6.054;2023-02-18T03:38:25;100768.34;;;10.43;100.00
59825;BME280;45703;50.898;6.054;2023-02-18T03:40:54;100749.66;;;10.43;100.00
59825;BME280;45703;50.898;6.054;2023-02-18T03:43:19;100743.94;;;10.39;100.00
59825;BME280;45703;50.898;6.054;2023-02-18T03:45:45;100746.78;;;10.38;100.00
59825;BME280;45703;50.898;6.054;2023-02-18T03:48:10;100750.91;;;10.34;100.00
59825;BME280;45703;50.898;6.054;2023-02-18T03:50:36;100741.47;;;10.31;100.00
59825;BME280;45703;50.898;6.054;2023-02-18T03:53:01;100741.66;;;10.36;100.00
59825;BME280;45703;50.898;6.054;2023-02-18T03:55:27;100740.22;;;10.34;100.00
59825;BME280;45703;50.898;6.054;2023-02-18T03:57:52;100727.28;;;10.31;100.00
59825;BME280;45703;50.898;6.054;2023-02-18T04:00:18;100716.44;;;10.26;100.00
59825;BME280;45703;50.898;6.054;2023-02-18T04:02:44;100703.69;;;10.28;100.00
59825;BME280;45703;50.898;6.054;2023-02-18T04:05:12;100697.56;;;10.27;100.00
59825;BME280;45703;50.898;6.054;2023-02-18T04:07:37;100703.69;;;10.34;100.00
59825;BME280;45703;50.898;6.054;2023-02-18T04:10:04;100687.28;;;10.31;100.00
59825;BME280;45703;50.898;6.054;2023-02-18T04:12:30;100701.44;;;10.31;100.00
59825;BME280;45703;50.898;6.054;2023-02-18T04:14:56;100685.63;;;10.30;100.00
59825;BME280;45703;50.898;6.054;2023-02-18T04:17:21;100700.59;;;10.37;100.00
59825;BME280;45703;50.898;6.054;2023-02-18T04:19:46;100707.38;;;10.40;100.00
59825;BME280;45703;50.898;6.054;2023-02-18T04:22:12;100691.34;;;10.40;100.00
59825;BME280;45703;50.898;6.054;2023-02-18T04:24:37;100695.66;;;10.41;100.00
59825;BME280;45703;50.898;6.054;2023-02-18T04:27:02;100688.88;;;10.45;100.00
59825;BME280;45703;50.898;6.054;2023-02-18T04:29:28;100701.59;;;10.43;100.00
59825;BME280;45703;50.898;6.054;2023-02-18T04:31:53;100684.56;;;10.44;100.00
59825;BME280;45703;50.898;6.054;2023-02-18T04:34:19;100683.16;;;10.41;100.00
59825;BME280;45703;50.898;6.054;2023-02-18T04:36:44;100692.19;;;10.47;100.00
59825;BME280;45703;50.898;6.054;2023-02-18T04:39:10;100695.03;;;10.52;100.00
59825;BME280;45703;50.898;6.054;2023-02-18T04:41:35;100687.84;;;10.52;100.00
59825;BME280;45703;50.898;6.054;2023-02-18T04:44:01;100689.69;;;10.52;100.00
59825;BME280;45703;50.898;6.054;2023-02-18T04:46:26;100695.66;;;10.54;100.00
59825;BME280;45703;50.898;6.054;2023-02-18T04:48:52;100683.16;;;10.48;100.00
59825;BME280;45703;50.898;6.054;2023-02-18T04:51:18;100693.78;;;10.54;100.00
59825;BME280;45703;50.898;6.054;2023-02-18T04:53:43;100676.53;;;10.50;100.00
59825;BME280;45703;50.898;6.054;2023-02-18T04:56:08;100676.53;;;10.50;100.00
59825;BME280;45703;50.898;6.054;2023-02-18T04:58:34;100668.34;;;10.45;100.00
59825;BME280;45703;50.898;6.054;2023-02-18T05:01:01;100665.50;;;10.47;100.00
59825;BME280;45703;50.898;6.054;2023-02-18T05:03:28;100676.78;;;10.42;100.00
59825;BME280;45703;50.898;6.054;2023-02-18T05:05:53;100676.16;;;10.40;100.00
59825;BME280;45703;50.898;6.054;2023-02-18T05:08:19;100668.59;;;10.37;100.00
59825;BME280;45703;50.898;6.054;2023-02-18T05:10:44;100680.69;;;10.40;100.00
59825;BME280;45703;50.898;6.054;2023-02-18T05:13:10;100687.47;;;10.42;100.00
59825;BME280;45703;50.898;6.054;2023-02-18T05:15:35;100680.69;;;10.40;100.00
59825;BME280;45703;50.898;6.054;2023-02-18T05:18:00;100676.38;;;10.39;100.00
59825;BME280;45703;50.898;6.054;2023-02-18T05:20:26;100676.16;;;10.40;100.00
59825;BME280;45703;50.898;6.054;2023-02-18T05:22:51;100664.88;;;10.38;100.00
59825;BME280;45703;50.898;6.054;2023-02-18T05:25:17;100664.03;;;10.38;100.00
59825;BME280;45703;50.898;6.054;2023-02-18T05:27:42;100674.50;;;10.46;100.00
59825;BME280;45703;50.898;6.054;2023-02-18T05:30:08;100679.22;;;10.44;100.00
59825;BME280;45703;50.898;6.054;2023-02-18T05:32:34;100659.13;;;10.48;100.00
59825;BME280;45703;50.898;6.054;2023-02-18T05:34:59;100684.78;;;10.49;100.00
59825;BME280;45703;50.898;6.054;2023-02-18T05:37:24;100688.06;;;10.51;100.00
59825;BME280;45703;50.898;6.054;2023-02-18T05:39:50;100699.78;;;10.50;100.00
59825;BME280;45703;50.898;6.054;2023-02-18T05:42:15;100677.16;;;10.52;100.00
59825;BME280;45703;50.898;6.054;2023-02-18T05:44:40;100659.31;;;10.53;100.00
59825;BME280;45703;50.898;6.054;2023-02-18T05:47:10;100668.34;;;10.52;100.00
59825;BME280;45703;50.898;6.054;2023-02-18T05:49:39;100669.16;;;10.52;100.00
59825;BME280;45703;50.898;6.054;2023-02-18T05:52:04;100655.81;;;10.52;100.00
59825;BME280;45703;50.898;6.054;2023-02-18T05:54:30;100649.06;;;10.50;100.00
59825;BME280;45703;50.898;6.054;2023-02-18T05:56:56;100653.97;;;10.53;100.00
59825;BME280;45703;50.898;6.054;2023-02-18T05:59:22;100638.78;;;10.47;100.00
59825;BME280;45703;50.898;6.054;2023-02-18T06:01:48;100637.34;;;10.51;100.00
59825;BME280;45703;50.898;6.054;2023-02-18T06:04:14;100627.28;;;10.46;100.00
59825;BME280;45703;50.898;6.054;2023-02-18T06:06:40;100615.38;;;10.49;100.00
59825;BME280;45703;50.898;6.054;2023-02-18T06:09:06;100602.22;;;10.47;100.00
59825;BME280;45703;50.898;6.054;2023-02-18T06:11:32;100614.13;;;10.45;100.00
59825;BME280;45703;50.898;6.054;2023-02-18T06:13:58;100606.34;;;10.43;100.00
59825;BME280;45703;50.898;6.054;2023-02-18T06:16:23;100616.59;;;10.46;100.00
59825;BME280;45703;50.898;6.054;2023-02-18T06:18:49;100606.34;;;10.43;100.00
59825;BME280;45703;50.898;6.054;2023-02-18T06:21:14;100603.88;;;10.42;100.00
59825;BME280;45703;50.898;6.054;2023-02-18T06:23:40;100619.88;;;10.48;100.00
59825;BME280;45703;50.898;6.054;2023-02-18T06:26:05;100596.47;;;10.44;100.00
59825;BME280;45703;50.898;6.054;2023-02-18T06:28:31;100610.44;;;10.46;100.00
59825;BME280;45703;50.898;6.054;2023-02-18T06:30:56;100610.44;;;10.46;100.00
59825;BME280;45703;50.898;6.054;2023-02-18T06:33:22;100613.31;;;10.44;100.00
59825;BME280;45703;50.898;6.054;2023-02-18T06:36:05;100603.88;;;10.42;100.00
59825;BME280;45703;50.898;6.054;2023-02-18T06:38:37;100601.81;;;10.44;100.00
59825;BME280;45703;50.898;6.054;2023-02-18T06:41:03;100606.38;;;10.37;100.00
59825;BME280;45703;50.898;6.054;2023-02-18T06:43:29;100604.31;;;10.39;100.00
59825;BME280;45703;50.898;6.054;2023-02-18T06:45:54;100596.91;;;10.41;100.00
59825;BME280;45703;50.898;6.054;2023-02-18T06:48:20;100592.59;;;10.40;100.00
59825;BME280;45703;50.898;6.054;2023-02-18T06:50:45;100593.84;;;10.37;100.00
59825;BME280;45703;50.898;6.054;2023-02-18T06:53:11;100597.31;;;10.38;100.00
59825;BME280;45703;50.898;6.054;2023-02-18T06:55:37;100585.00;;;10.37;100.00
59825;BME280;45703;50.898;6.054;2023-02-18T06:58:03;100587.50;;;10.38;100.00
59825;BME280;45703;50.898;6.054;2023-02-18T07:00:28;100599.38;;;10.36;100.00
59825;BME280;45703;50.898;6.054;2023-02-18T07:02:54;100608.03;;;10.31;100.00
59825;BME280;45703;50.898;6.054;2023-02-18T07:05:19;100606.19;;;10.32;100.00
59825;BME280;45703;50.898;6.054;2023-02-18T07:07:45;100601.06;;;10.30;100.00
59825;BME280;45703;50.898;6.054;2023-02-18T07:10:10;100608.03;;;10.31;100.00
59825;BME280;45703;50.898;6.054;2023-02-18T07:12:36;100596.56;;;10.24;100.00
59825;BME280;45703;50.898;6.054;2023-02-18T07:15:02;100615.44;;;10.23;100.00
59825;BME280;45703;50.898;6.054;2023-02-18T07:17:27;100630.66;;;10.16;100.00
59825;BME280;45703;50.898;6.054;2023-02-18T07:19:53;100636.41;;;10.13;100.00
59825;BME280;45703;50.898;6.054;2023-02-18T07:22:20;100646.06;;;10.07;100.00
59825;BME280;45703;50.898;6.054;2023-02-18T07:24:45;100672.34;;;10.04;100.00
59825;BME280;45703;50.898;6.054;2023-02-18T07:27:11;100668.84;;;9.97;100.00
59825;BME280;45703;50.898;6.054;2023-02-18T07:29:36;100702.25;;;9.93;100.00
59825;BME280;45703;50.898;6.054;2023-02-18T07:32:01;100650.78;;;9.86;100.00
59825;BME280;45703;50.898;6.054;2023-02-18T07:34:27;100642.16;;;9.84;100.00
59825;BME280;45703;50.898;6.054;2023-02-18T07:36:53;100630.25;;;9.80;100.00
59825;BME280;45703;50.898;6.054;2023-02-18T07:39:18;100627.59;;;9.80;100.00
59825;BME280;45703;50.898;6.054;2023-02-18T07:41:46;100634.16;;;9.84;100.00
59825;BME280;45703;50.898;6.054;2023-02-18T07:44:12;100650.78;;;9.86;100.00
59825;BME280;45703;50.898;6.054;2023-02-18T07:46:39;100643.59;;;9.87;100.00
59825;BME280;45703;50.898;6.054;2023-02-18T07:49:05;100667.38;;;9.88;100.00
59825;BME280;45703;50.898;6.054;2023-02-18T07:51:30;100653.63;;;9.91;100.00
59825;BME280;45703;50.898;6.054;2023-02-18T07:53:56;100674.56;;;9.94;100.00
59825;BME280;45703;50.898;6.054;2023-02-18T07:56:21;100659.38;;;9.95;100.00
59825;BME280;45703;50.898;6.054;2023-02-18T07:58:46;100669.22;;;9.94;100.00
59825;BME280;45703;50.898;6.054;2023-02-18T08:01:13;100674.56;;;9.94;100.00
59825;BME280;45703;50.898;6.054;2023-02-18T08:03:40;100659.59;;;9.93;99.67
59825;BME280;45703;50.898;6.054;2023-02-18T08:06:06;100680.72;;;9.95;99.86
59825;BME280;45703;50.898;6.054;2023-02-18T08:08:33;100658.97;;;9.91;100.00
59825;BME280;45703;50.898;6.054;2023-02-18T08:11:00;100679.88;;;9.94;99.91
59825;BME280;45703;50.898;6.054;2023-02-18T08:13:31;100677.88;;;9.96;100.00
59825;BME280;45703;50.898;6.054;2023-02-18T08:15:56;100673.75;;;9.94;100.00
59825;BME280;45703;50.898;6.054;2023-02-18T08:18:24;100670.06;;;9.95;100.00
59825;BME280;45703;50.898;6.054;2023-02-18T08:20:50;100665.56;;;9.95;100.00
59825;BME280;45703;50.898;6.054;2023-02-18T08:23:18;100669.03;;;9.83;100.00
59825;BME280;45703;50.898;6.054;2023-02-18T08:25:51;100682.78;;;9.93;100.00
59825;BME280;45703;50.898;6.054;2023-02-18T08:28:18;100670.25;;;9.93;99.80
59825;BME280;45703;50.898;6.054;2023-02-18T08:30:44;100677.88;;;9.96;99.98
59825;BME280;45703;50.898;6.054;2023-02-18T08:33:11;100670.47;;;9.92;100.00
59825;BME280;45703;50.898;6.054;2023-02-18T08:35:36;100685.03;;;9.96;100.00
59825;BME280;45703;50.898;6.054;2023-02-18T08:38:02;100687.50;;;9.97;100.00
59825;BME280;45703;50.898;6.054;2023-02-18T08:40:27;100695.88;;;9.94;99.82
59825;BME280;45703;50.898;6.054;2023-02-18T08:42:52;100709.22;;;9.94;99.11
59825;BME280;45703;50.898;6.054;2023-02-18T08:45:18;100703.28;;;9.98;99.26
59825;BME280;45703;50.898;6.054;2023-02-18T08:47:43;100702.09;;;10.01;99.05
59825;BME280;45703;50.898;6.054;2023-02-18T08:50:09;100705.38;;;10.03;99.14
59825;BME280;45703;50.898;6.054;2023-02-18T08:52:34;100684.44;;;10.06;98.83
59825;BME280;45703;50.898;6.054;2023-02-18T08:55:00;100682.41;;;10.02;99.24
59825;BME280;45703;50.898;6.054;2023-02-18T08:57:27;100666.41;;;10.02;99.16
59825;BME280;45703;50.898;6.054;2023-02-18T08:59:52;100691.03;;;10.04;98.81
59825;BME280;45703;50.898;6.054;2023-02-18T09:02:18;100669.69;;;10.04;99.03
59825;BME280;45703;50.898;6.054;2023-02-18T09:04:43;100680.75;;;10.01;99.31
59825;BME280;45703;50.898;6.054;2023-02-18T09:07:08;100682.59;;;10.07;99.03
59825;BME280;45703;50.898;6.054;2023-02-18T09:09:34;100664.34;;;10.04;98.66
59825;BME280;45703;50.898;6.054;2023-02-18T09:12:00;100670.50;;;10.11;98.83
59825;BME280;45703;50.898;6.054;2023-02-18T09:14:25;100658.97;;;10.10;98.16
59825;BME280;45703;50.898;6.054;2023-02-18T09:16:51;100669.22;;;10.13;97.80
59825;BME280;45703;50.898;6.054;2023-02-18T09:19:17;100668.81;;;10.23;96.89
59825;BME280;45703;50.898;6.054;2023-02-18T09:21:42;100676.22;;;10.27;97.22
59825;BME280;45703;50.898;6.054;2023-02-18T09:24:08;100690.34;;;10.34;96.25
59825;BME280;45703;50.898;6.054;2023-02-18T09:26:34;100668.78;;;10.36;95.59
59825;BME280;45703;50.898;6.054;2023-02-18T09:28:59;100680.25;;;10.43;96.00
59825;BME280;45703;50.898;6.054;2023-02-18T09:31:26;100681.50;;;10.47;95.27
59825;BME280;45703;50.898;6.054;2023-02-18T09:33:55;100672.03;;;10.51;94.91
59825;BME280;45703;50.898;6.054;2023-02-18T09:36:21;100679.81;;;10.52;94.37
59825;BME280;45703;50.898;6.054;2023-02-18T09:38:46;100675.09;;;10.54;94.62
59825;BME280;45703;50.898;6.054;2023-02-18T09:43:48;100652.09;;;10.53;94.93
59825;BME280;45703;50.898;6.054;2023-02-18T09:46:21;100657.25;;;10.55;95.29
59825;BME280;45703;50.898;6.054;2023-02-18T09:48:47;100645.34;;;10.51;95.67
59825;BME280;45703;50.898;6.054;2023-02-18T09:51:17;100637.53;;;10.49;95.99
59825;BME280;45703;50.898;6.054;2023-02-18T09:53:44;100654.38;;;10.50;96.46
59825;BME280;45703;50.898;6.054;2023-02-18T09:56:15;100646.59;;;10.42;97.42
59825;BME280;45703;50.898;6.054;2023-02-18T09:58:46;100649.69;;;10.39;98.01
59825;BME280;45703;50.898;6.054;2023-02-18T10:01:40;100660.38;;;10.32;97.72
59825;BME280;45703;50.898;6.054;2023-02-18T10:04:39;100630.38;;;10.37;96.64
59825;BME280;45703;50.898;6.054;2023-02-18T10:07:18;100625.28;;;10.35;95.21
59825;BME280;45703;50.898;6.054;2023-02-18T10:09:46;100639.59;;;10.41;95.49
59825;BME280;45703;50.898;6.054;2023-02-18T10:12:17;100638.56;;;10.42;95.67
59825;BME280;45703;50.898;6.054;2023-02-18T10:14:48;100646.81;;;10.47;95.90
59825;BME280;45703;50.898;6.054;2023-02-18T10:17:15;100634.88;;;10.43;96.58
59825;BME280;45703;50.898;6.054;2023-02-18T10:19:43;100645.34;;;10.44;97.56
59825;BME280;45703;50.898;6.054;2023-02-18T10:22:11;100641.66;;;10.39;98.18
59825;BME280;45703;50.898;6.054;2023-02-18T10:24:45;100657.25;;;10.42;99.52
59825;BME280;45703;50.898;6.054;2023-02-18T10:27:17;100644.34;;;10.39;100.00
59825;BME280;45703;50.898;6.054;2023-02-18T10:29:43;100648.47;;;10.35;100.00
59825;BME280;45703;50.898;6.054;2023-02-18T10:32:22;100651.53;;;10.32;100.00
59825;BME280;45703;50.898;6.054;2023-02-18T10:34:52;100647.88;;;10.26;100.00
59825;BME280;45703;50.898;6.054;2023-02-18T10:39:51;100657.34;;;10.16;100.00
59825;BME280;45703;50.898;6.054;2023-02-18T10:45:01;100661.88;;;10.09;100.00
59825;BME280;45703;50.898;6.054;2023-02-18T10:47:42;100665.97;;;10.05;100.00
59825;BME280;45703;50.898;6.054;2023-02-18T10:50:20;100688.75;;;10.01;100.00
59825;BME280;45703;50.898;6.054;2023-02-18T10:52:51;100673.34;;;9.97;100.00
59825;BME280;45703;50.898;6.054;2023-02-18T10:55:18;100673.34;;;9.97;100.00
59825;BME280;45703;50.898;6.054;2023-02-18T10:57:51;100669.44;;;9.93;100.00
59825;BME280;45703;50.898;6.054;2023-02-18T11:00:25;100717.25;;;9.88;100.00
59825;BME280;45703;50.898;6.054;2023-02-18T11:03:15;100679.50;;;9.84;100.00
59825;BME280;45703;50.898;6.054;2023-02-18T11:05:42;100673.16;;;9.79;100.00
59825;BME280;45703;50.898;6.054;2023-02-18T11:08:10;100687.69;;;9.76;100.00
59825;BME280;45703;50.898;6.054;2023-02-18T11:10:41;100685.25;;;9.75;100.00
59825;BME280;45703;50.898;6.054;2023-02-18T11:13:09;100686.47;;;9.72;100.00
59825;BME280;45703;50.898;6.054;2023-02-18T11:15:37;100686.28;;;9.74;100.00
59825;BME280;45703;50.898;6.054;2023-02-18T11:18:25;100684.84;;;9.71;100.00
59825;BME280;45703;50.898;6.054;2023-02-18T11:21:08;100681.97;;;9.73;100.00
59825;BME280;45703;50.898;6.054;2023-02-18T11:23:51;100681.13;;;9.72;100.00
59825;BME280;45703;50.898;6.054;2023-02-18T11:26:31;100678.69;;;9.64;100.00
59825;BME280;45703;50.898;6.054;2023-02-18T11:29:05;100692.03;;;9.71;100.00
59825;BME280;45703;50.898;6.054;2023-02-18T11:31:46;100680.94;;;9.67;100.00
59825;BME280;45703;50.898;6.054;2023-02-18T11:34:19;100683.78;;;9.66;100.00
59825;BME280;45703;50.898;6.054;2023-02-18T11:36:47;100679.06;;;9.68;100.00
59825;BME280;45703;50.898;6.054;2023-02-18T11:41:46;100678.69;;;9.64;100.00
59825;BME280;45703;50.898;6.054;2023-02-18T11:44:36;100688.53;;;9.70;100.00
59825;BME280;45703;50.898;6.054;2023-02-18T11:49:40;100670.03;;;9.69;100.00
59825;BME280;45703;50.898;6.054;2023-02-18T11:52:19;100688.09;;;9.73;100.00
59825;BME280;45703;50.898;6.054;2023-02-18T11:55:20;100674.56;;;9.68;100.00
59825;BME280;45703;50.898;6.054;2023-02-18T11:57:54;100680.53;;;9.70;100.00
59825;BME280;45703;50.898;6.054;2023-02-18T12:00:45;100676.03;;;9.71;100.00
59825;BME280;45703;50.898;6.054;2023-02-18T12:03:39;100689.13;;;9.72;100.00
59825;BME280;45703;50.898;6.054;2023-02-18T12:06:25;100668.22;;;9.69;100.00
59825;BME280;45703;50.898;6.054;2023-02-18T12:12:00;100678.69;;;9.71;100.00
59825;BME280;45703;50.898;6.054;2023-02-18T12:14:29;100668.84;;;9.71;100.00
59825;BME280;45703;50.898;6.054;2023-02-18T12:17:25;100681.53;;;9.69;100.00
59825;BME280;45703;50.898;6.054;2023-02-18T12:44:40;100679.50;;;9.78;100.00
59825;BME280;45703;50.898;6.054;2023-02-18T12:50:24;100679.50;;;9.84;100.00
59825;BME280;45703;50.898;6.054;2023-02-18T13:08:58;100681.56;;;10.02;100.00
59825;BME280;45703;50.898;6.054;2023-02-18T13:11:54;100681.38;;;10.03;100.00
59825;BME280;45703;50.898;6.054;2023-02-18T13:14:24;100677.88;;;10.02;100.00
59825;BME280;45703;50.898;6.054;2023-02-18T13:16:54;100688.97;;;10.06;100.00
59825;BME280;45703;50.898;6.054;2023-02-18T13:19:33;100684.25;;;10.08;100.00
59825;BME280;45703;50.898;6.054;2023-02-18T13:22:04;100695.53;;;10.10;100.00
59825;BME280;45703;50.898;6.054;2023-02-18T13:24:42;100678.28;;;10.06;100.00
59825;BME280;45703;50.898;6.054;2023-02-18T13:27:32;100676.44;;;10.06;100.00
59825;BME280;45703;50.898;6.054;2023-02-18T13:30:21;100668.63;;;10.11;100.00
59825;BME280;45703;50.898;6.054;2023-02-18T13:33:16;100680.75;;;10.14;100.00
59825;BME280;45703;50.898;6.054;2023-02-18T13:35:53;100683.00;;;10.17;100.00
59825;BME280;45703;50.898;6.054;2023-02-18T13:41:11;100662.88;;;10.21;100.00
59825;BME280;45703;50.898;6.054;2023-02-18T13:43:37;100658.56;;;10.20;100.00
59825;BME280;45703;50.898;6.054;2023-02-18T13:46:22;100665.13;;;10.24;100.00
59825;BME280;45703;50.898;6.054;2023-02-18T13:51:26;100668.81;;;10.23;100.00
59825;BME280;45703;50.898;6.054;2023-02-18T13:54:02;100667.59;;;10.19;100.00
59825;BME280;45703;50.898;6.054;2023-02-18T13:56:32;100671.28;;;10.18;100.00
59825;BME280;45703;50.898;6.054;2023-02-18T13:59:01;100669.03;;;10.15;100.00
59825;BME280;45703;50.898;6.054;2023-02-18T14:01:38;100672.72;;;10.14;100.00
59825;BME280;45703;50.898;6.054;2023-02-18T14:10:00;100671.72;;;10.21;100.00
59825;BME280;45703;50.898;6.054;2023-02-18T14:14:57;100655.88;;;10.26;100.00
59825;BME280;45703;50.898;6.054;2023-02-18T14:22:32;100648.72;;;10.20;100.00
59825;BME280;45703;50.898;6.054;2023-02-18T14:25:21;100669.22;;;10.20;100.00
59825;BME280;45703;50.898;6.054;2023-02-18T14:27:51;100661.44;;;10.18;100.00
59825;BME280;45703;50.898;6.054;2023-02-18T14:32:46;100675.78;;;10.17;100.00
59825;BME280;45703;50.898;6.054;2023-02-18T14:40:23;100667.41;;;10.14;100.00
59825;BME280;45703;50.898;6.054;2023-02-18T14:43:43;100663.47;;;10.16;100.00
59825;BME280;45703;50.898;6.054;2023-02-18T14:51:28;100674.38;;;10.15;100.00
59825;BME280;45703;50.898;6.054;2023-02-18T14:53:55;100663.69;;;10.08;100.00
59825;BME280;45703;50.898;6.054;2023-02-18T14:56:21;100670.50;;;10.11;100.00
59825;BME280;45703;50.898;6.054;2023-02-18T14:58:50;100681.16;;;10.11;100.00
59825;BME280;45703;50.898;6.054;2023-02-18T15:01:24;100673.16;;;10.11;100.00